sensor_id;sensor_type;location;lat;lon;timestamp;temperature;humidity
1011;DHT22;494;48.744;10.106;2022-08-05T00:00:45;24.10;39.10
1011;DHT22;494;48.744;10.106;2022-08-05T00:03:16;24.00;39.10
1011;DHT22;494;48.744;10.106;2022-08-05T00:05:44;24.00;39.10
1011;DHT22;494;48.744;10.106;2022-08-05T00:08:33;23.90;38.90
1011;DHT22;494;48.744;10.106;2022-08-05T00:11:07;24.00;39.00
1011;DHT22;494;48.744;10.106;2022-08-05T00:13:56;23.90;39.10
1011;DHT22;494;48.744;10.106;2022-08-05T00:16:25;23.90;39.40
1011;DHT22;494;48.744;10.106;2022-08-05T00:19:14;23.80;39.70
1011;DHT22;494;48.744;10.106;2022-08-05T00:21:47;23.80;39.90
1011;DHT22;494;48.744;10.106;2022-08-05T00:24:16;23.80;39.60
1011;DHT22;494;48.744;10.106;2022-08-05T00:26:57;23.80;39.80
1011;DHT22;494;48.744;10.106;2022-08-05T00:29:30;23.80;40.70
1011;DHT22;494;48.744;10.106;2022-08-05T00:32:04;23.70;40.30
1011;DHT22;494;48.744;10.106;2022-08-05T00:34:41;23.70;40.30
1011;DHT22;494;48.744;10.106;2022-08-05T00:37:31;23.70;40.40
1011;DHT22;494;48.744;10.106;2022-08-05T00:40:19;23.80;40.20
1011;DHT22;494;48.744;10.106;2022-08-05T00:42:56;23.80;40.10
1011;DHT22;494;48.744;10.106;2022-08-05T00:45:26;23.80;40.00
1011;DHT22;494;48.744;10.106;2022-08-05T00:48:11;23.80;39.80
1011;DHT22;494;48.744;10.106;2022-08-05T00:50:42;23.80;39.80
1011;DHT22;494;48.744;10.106;2022-08-05T00:53:19;23.80;39.80
1011;DHT22;494;48.744;10.106;2022-08-05T00:56:09;23.80;39.80
1011;DHT22;494;48.744;10.106;2022-08-05T00:58:44;23.80;40.10
1011;DHT22;494;48.744;10.106;2022-08-05T01:01:13;23.70;40.10
1011;DHT22;494;48.744;10.106;2022-08-05T01:04:02;23.70;40.00
1011;DHT22;494;48.744;10.106;2022-08-05T01:06:41;23.70;40.10
1011;DHT22;494;48.744;10.106;2022-08-05T01:09:14;23.70;40.40
1011;DHT22;494;48.744;10.106;2022-08-05T01:11:48;23.50;40.50
1011;DHT22;494;48.744;10.106;2022-08-05T01:14:25;23.50;40.60
1011;DHT22;494;48.744;10.106;2022-08-05T01:17:02;23.50;40.80
1011;DHT22;494;48.744;10.106;2022-08-05T01:19:35;23.50;40.80
1011;DHT22;494;48.744;10.106;2022-08-05T01:22:39;23.50;41.00
1011;DHT22;494;48.744;10.106;2022-08-05T01:25:41;23.40;41.10
1011;DHT22;494;48.744;10.106;2022-08-05T01:28:28;23.40;41.10
1011;DHT22;494;48.744;10.106;2022-08-05T01:31:09;23.40;41.20
1011;DHT22;494;48.744;10.106;2022-08-05T01:33:49;23.30;41.50
1011;DHT22;494;48.744;10.106;2022-08-05T01:36:31;23.30;41.60
1011;DHT22;494;48.744;10.106;2022-08-05T01:39:15;23.20;41.50
1011;DHT22;494;48.744;10.106;2022-08-05T01:42:06;23.20;41.50
1011;DHT22;494;48.744;10.106;2022-08-05T01:44:42;23.20;41.90
1011;DHT22;494;48.744;10.106;2022-08-05T01:47:21;23.10;42.00
1011;DHT22;494;48.744;10.106;2022-08-05T01:50:08;23.10;42.20
1011;DHT22;494;48.744;10.106;2022-08-05T01:52:45;23.10;42.50
1011;DHT22;494;48.744;10.106;2022-08-05T01:55:22;23.10;42.50
1011;DHT22;494;48.744;10.106;2022-08-05T01:57:57;23.10;42.50
1011;DHT22;494;48.744;10.106;2022-08-05T02:00:50;23.20;42.60
1011;DHT22;494;48.744;10.106;2022-08-05T02:03:24;23.00;42.20
1011;DHT22;494;48.744;10.106;2022-08-05T02:06:00;23.00;42.20
1011;DHT22;494;48.744;10.106;2022-08-05T02:08:52;23.00;42.30
1011;DHT22;494;48.744;10.106;2022-08-05T02:11:26;23.00;42.40
1011;DHT22;494;48.744;10.106;2022-08-05T02:14:18;22.90;42.50
1011;DHT22;494;48.744;10.106;2022-08-05T02:16:54;22.80;42.80
1011;DHT22;494;48.744;10.106;2022-08-05T02:19:31;22.80;43.00
1011;DHT22;494;48.744;10.106;2022-08-05T02:22:16;22.80;43.20
1011;DHT22;494;48.744;10.106;2022-08-05T02:24:57;22.70;43.40
1011;DHT22;494;48.744;10.106;2022-08-05T02:27:33;22.60;43.40
1011;DHT22;494;48.744;10.106;2022-08-05T02:30:26;22.60;43.60
1011;DHT22;494;48.744;10.106;2022-08-05T02:33:02;22.50;43.70
1011;DHT22;494;48.744;10.106;2022-08-05T02:35:34;22.50;44.10
1011;DHT22;494;48.744;10.106;2022-08-05T02:38:24;22.50;44.30
1011;DHT22;494;48.744;10.106;2022-08-05T02:41:02;22.50;44.40
1011;DHT22;494;48.744;10.106;2022-08-05T02:43:45;22.50;44.30
1011;DHT22;494;48.744;10.106;2022-08-05T02:46:35;22.60;44.30
1011;DHT22;494;48.744;10.106;2022-08-05T02:49:30;22.40;44.70
1011;DHT22;494;48.744;10.106;2022-08-05T02:52:06;22.20;44.70
1011;DHT22;494;48.744;10.106;2022-08-05T02:54:38;22.10;45.50
1011;DHT22;494;48.744;10.106;2022-08-05T02:57:18;22.10;45.40
1011;DHT22;494;48.744;10.106;2022-08-05T03:00:11;22.20;45.40
1011;DHT22;494;48.744;10.106;2022-08-05T03:02:43;22.20;45.00
1011;DHT22;494;48.744;10.106;2022-08-05T03:05:15;22.20;44.80
1011;DHT22;494;48.744;10.106;2022-08-05T03:08:04;22.20;44.60
1011;DHT22;494;48.744;10.106;2022-08-05T03:10:35;22.10;44.80
1011;DHT22;494;48.744;10.106;2022-08-05T03:13:11;22.10;44.70
1011;DHT22;494;48.744;10.106;2022-08-05T03:15:43;22.00;44.60
1011;DHT22;494;48.744;10.106;2022-08-05T03:18:13;21.80;45.50
1011;DHT22;494;48.744;10.106;2022-08-05T03:20:44;21.60;46.30
1011;DHT22;494;48.744;10.106;2022-08-05T03:23:14;21.40;47.00
1011;DHT22;494;48.744;10.106;2022-08-05T03:25:43;21.30;47.70
1011;DHT22;494;48.744;10.106;2022-08-05T03:28:32;21.30;47.80
1011;DHT22;494;48.744;10.106;2022-08-05T03:31:02;21.40;48.00
1011;DHT22;494;48.744;10.106;2022-08-05T03:33:32;21.40;48.10
1011;DHT22;494;48.744;10.106;2022-08-05T03:36:20;21.40;47.70
1011;DHT22;494;48.744;10.106;2022-08-05T03:38:56;21.40;47.70
1011;DHT22;494;48.744;10.106;2022-08-05T03:41:26;21.40;47.60
1011;DHT22;494;48.744;10.106;2022-08-05T03:43:59;21.50;47.50
1011;DHT22;494;48.744;10.106;2022-08-05T03:46:37;21.50;47.10
1011;DHT22;494;48.744;10.106;2022-08-05T03:49:06;21.40;47.80
1011;DHT22;494;48.744;10.106;2022-08-05T03:51:40;21.50;47.50
1011;DHT22;494;48.744;10.106;2022-08-05T03:54:36;21.50;47.20
1011;DHT22;494;48.744;10.106;2022-08-05T03:57:31;21.50;46.80
1011;DHT22;494;48.744;10.106;2022-08-05T04:00:10;21.30;47.10
1011;DHT22;494;48.744;10.106;2022-08-05T04:02:44;21.30;47.40
1011;DHT22;494;48.744;10.106;2022-08-05T04:05:26;21.50;47.10
1011;DHT22;494;48.744;10.106;2022-08-05T04:08:04;21.60;46.70
1011;DHT22;494;48.744;10.106;2022-08-05T04:10:56;21.60;46.60
1011;DHT22;494;48.744;10.106;2022-08-05T04:13:25;21.60;46.80
1011;DHT22;494;48.744;10.106;2022-08-05T04:16:15;21.50;46.80
1011;DHT22;494;48.744;10.106;2022-08-05T04:18:58;21.60;46.90
1011;DHT22;494;48.744;10.106;2022-08-05T04:21:26;21.60;46.80
1011;DHT22;494;48.744;10.106;2022-08-05T04:24:16;21.60;46.80
1011;DHT22;494;48.744;10.106;2022-08-05T04:26:48;21.60;46.70
1011;DHT22;494;48.744;10.106;2022-08-05T04:29:18;21.60;46.90
1011;DHT22;494;48.744;10.106;2022-08-05T04:31:46;21.60;47.00
1011;DHT22;494;48.744;10.106;2022-08-05T04:34:15;21.70;47.80
1011;DHT22;494;48.744;10.106;2022-08-05T04:37:00;21.60;47.00
1011;DHT22;494;48.744;10.106;2022-08-05T04:39:31;21.70;47.00
1011;DHT22;494;48.744;10.106;2022-08-05T04:42:01;21.80;46.60
1011;DHT22;494;48.744;10.106;2022-08-05T04:44:30;22.00;45.90
1011;DHT22;494;48.744;10.106;2022-08-05T04:46:59;22.20;45.00
1011;DHT22;494;48.744;10.106;2022-08-05T04:49:37;22.40;44.60
1011;DHT22;494;48.744;10.106;2022-08-05T04:52:26;22.50;42.90
1011;DHT22;494;48.744;10.106;2022-08-05T04:55:01;22.60;42.40
1011;DHT22;494;48.744;10.106;2022-08-05T04:57:43;22.70;41.80
1011;DHT22;494;48.744;10.106;2022-08-05T05:00:20;22.90;41.10
1011;DHT22;494;48.744;10.106;2022-08-05T05:02:49;23.10;41.30
1011;DHT22;494;48.744;10.106;2022-08-05T05:05:21;23.10;41.30
1011;DHT22;494;48.744;10.106;2022-08-05T05:07:55;23.10;42.00
1011;DHT22;494;48.744;10.106;2022-08-05T05:10:30;23.20;41.60
1011;DHT22;494;48.744;10.106;2022-08-05T05:13:00;23.40;41.20
1011;DHT22;494;48.744;10.106;2022-08-05T05:15:30;23.50;41.10
1011;DHT22;494;48.744;10.106;2022-08-05T05:18:20;23.70;40.80
1011;DHT22;494;48.744;10.106;2022-08-05T05:20:59;23.70;41.00
1011;DHT22;494;48.744;10.106;2022-08-05T05:23:30;23.80;40.60
1011;DHT22;494;48.744;10.106;2022-08-05T05:26:27;23.80;40.20
1011;DHT22;494;48.744;10.106;2022-08-05T05:28:59;23.80;40.10
1011;DHT22;494;48.744;10.106;2022-08-05T05:31:41;24.00;39.80
1011;DHT22;494;48.744;10.106;2022-08-05T05:34:12;23.80;39.50
1011;DHT22;494;48.744;10.106;2022-08-05T05:36:42;24.00;39.80
1011;DHT22;494;48.744;10.106;2022-08-05T05:39:13;24.10;40.00
1011;DHT22;494;48.744;10.106;2022-08-05T05:41:46;23.90;40.50
1011;DHT22;494;48.744;10.106;2022-08-05T05:44:20;24.00;40.70
1011;DHT22;494;48.744;10.106;2022-08-05T05:47:04;24.20;40.90
1011;DHT22;494;48.744;10.106;2022-08-05T05:49:48;24.20;40.50
1011;DHT22;494;48.744;10.106;2022-08-05T05:52:27;24.30;40.20
1011;DHT22;494;48.744;10.106;2022-08-05T05:55:05;24.40;40.00
1011;DHT22;494;48.744;10.106;2022-08-05T05:57:42;24.40;39.10
1011;DHT22;494;48.744;10.106;2022-08-05T06:00:20;24.80;39.00
1011;DHT22;494;48.744;10.106;2022-08-05T06:03:00;25.00;38.30
1011;DHT22;494;48.744;10.106;2022-08-05T06:05:49;25.10;38.20
1011;DHT22;494;48.744;10.106;2022-08-05T06:08:21;25.00;37.20
1011;DHT22;494;48.744;10.106;2022-08-05T06:10:58;24.80;35.10
1011;DHT22;494;48.744;10.106;2022-08-05T06:13:29;25.10;34.90
1011;DHT22;494;48.744;10.106;2022-08-05T06:16:16;25.20;34.50
1011;DHT22;494;48.744;10.106;2022-08-05T06:18:56;25.30;33.90
1011;DHT22;494;48.744;10.106;2022-08-05T06:21:31;25.60;33.90
1011;DHT22;494;48.744;10.106;2022-08-05T06:24:04;25.80;33.50
1011;DHT22;494;48.744;10.106;2022-08-05T06:26:38;26.00;32.80
1011;DHT22;494;48.744;10.106;2022-08-05T06:29:20;26.10;32.80
1011;DHT22;494;48.744;10.106;2022-08-05T06:32:10;26.10;32.70
1011;DHT22;494;48.744;10.106;2022-08-05T06:34:52;26.10;33.50
1011;DHT22;494;48.744;10.106;2022-08-05T06:37:24;26.30;32.80
1011;DHT22;494;48.744;10.106;2022-08-05T06:40:13;26.50;32.10
1011;DHT22;494;48.744;10.106;2022-08-05T06:42:47;26.80;31.00
1011;DHT22;494;48.744;10.106;2022-08-05T06:45:20;26.80;30.60
1011;DHT22;494;48.744;10.106;2022-08-05T06:48:09;26.80;29.70
1011;DHT22;494;48.744;10.106;2022-08-05T06:50:58;26.70;30.90
1011;DHT22;494;48.744;10.106;2022-08-05T06:53:35;26.90;30.30
1011;DHT22;494;48.744;10.106;2022-08-05T06:56:05;27.00;29.80
1011;DHT22;494;48.744;10.106;2022-08-05T06:58:52;27.20;29.50
1011;DHT22;494;48.744;10.106;2022-08-05T07:01:25;27.40;28.60
1011;DHT22;494;48.744;10.106;2022-08-05T07:03:59;27.50;28.10
1011;DHT22;494;48.744;10.106;2022-08-05T07:06:29;27.60;26.90
1011;DHT22;494;48.744;10.106;2022-08-05T07:08:58;27.80;27.30
1011;DHT22;494;48.744;10.106;2022-08-05T07:11:30;28.10;26.60
1011;DHT22;494;48.744;10.106;2022-08-05T07:14:06;28.30;25.30
1011;DHT22;494;48.744;10.106;2022-08-05T07:16:58;28.60;25.00
1011;DHT22;494;48.744;10.106;2022-08-05T07:19:48;28.70;24.30
1011;DHT22;494;48.744;10.106;2022-08-05T07:22:38;28.70;23.70
1011;DHT22;494;48.744;10.106;2022-08-05T07:25:08;29.00;23.40
1011;DHT22;494;48.744;10.106;2022-08-05T07:27:57;29.30;22.60
1011;DHT22;494;48.744;10.106;2022-08-05T07:30:35;29.40;22.30
1011;DHT22;494;48.744;10.106;2022-08-05T07:33:09;29.20;22.60
1011;DHT22;494;48.744;10.106;2022-08-05T07:35:43;29.10;23.00
1011;DHT22;494;48.744;10.106;2022-08-05T07:38:33;28.80;23.20
1011;DHT22;494;48.744;10.106;2022-08-05T07:41:13;28.50;24.10
1011;DHT22;494;48.744;10.106;2022-08-05T07:44:04;28.20;24.80
1011;DHT22;494;48.744;10.106;2022-08-05T07:46:40;28.00;25.50
1011;DHT22;494;48.744;10.106;2022-08-05T07:49:17;28.00;26.00
1011;DHT22;494;48.744;10.106;2022-08-05T07:51:46;28.20;26.50
1011;DHT22;494;48.744;10.106;2022-08-05T07:54:21;28.40;25.70
1011;DHT22;494;48.744;10.106;2022-08-05T07:57:00;28.80;24.70
1011;DHT22;494;48.744;10.106;2022-08-05T07:59:49;29.00;24.40
1011;DHT22;494;48.744;10.106;2022-08-05T08:02:23;29.20;23.60
1011;DHT22;494;48.744;10.106;2022-08-05T08:05:14;29.40;22.60
1011;DHT22;494;48.744;10.106;2022-08-05T08:07:43;29.70;22.80
1011;DHT22;494;48.744;10.106;2022-08-05T08:10:26;29.90;21.80
1011;DHT22;494;48.744;10.106;2022-08-05T08:12:58;30.00;21.40
1011;DHT22;494;48.744;10.106;2022-08-05T08:15:27;30.00;20.80
1011;DHT22;494;48.744;10.106;2022-08-05T08:18:16;29.90;20.00
1011;DHT22;494;48.744;10.106;2022-08-05T08:20:48;29.80;20.20
1011;DHT22;494;48.744;10.106;2022-08-05T08:23:29;30.00;21.20
1011;DHT22;494;48.744;10.106;2022-08-05T08:26:18;30.30;19.40
1011;DHT22;494;48.744;10.106;2022-08-05T08:28:56;30.40;18.90
1011;DHT22;494;48.744;10.106;2022-08-05T08:31:45;30.20;17.40
1011;DHT22;494;48.744;10.106;2022-08-05T08:34:15;30.30;18.10
1011;DHT22;494;48.744;10.106;2022-08-05T08:36:57;30.50;17.60
1011;DHT22;494;48.744;10.106;2022-08-05T08:39:31;30.50;17.30
1011;DHT22;494;48.744;10.106;2022-08-05T08:42:04;30.40;17.40
1011;DHT22;494;48.744;10.106;2022-08-05T08:44:56;30.20;17.60
1011;DHT22;494;48.744;10.106;2022-08-05T08:47:45;29.80;18.40
1011;DHT22;494;48.744;10.106;2022-08-05T08:50:35;29.90;17.50
1011;DHT22;494;48.744;10.106;2022-08-05T08:53:35;30.00;17.40
1011;DHT22;494;48.744;10.106;2022-08-05T08:56:10;30.30;16.90
1011;DHT22;494;48.744;10.106;2022-08-05T08:58:40;30.70;15.70
1011;DHT22;494;48.744;10.106;2022-08-05T09:01:14;30.80;15.30
1011;DHT22;494;48.744;10.106;2022-08-05T09:03:45;30.90;14.50
1011;DHT22;494;48.744;10.106;2022-08-05T09:06:21;30.90;14.90
1011;DHT22;494;48.744;10.106;2022-08-05T09:08:58;31.10;15.10
1011;DHT22;494;48.744;10.106;2022-08-05T09:11:28;31.30;14.70
1011;DHT22;494;48.744;10.106;2022-08-05T09:14:17;31.50;14.20
1011;DHT22;494;48.744;10.106;2022-08-05T09:17:07;31.60;14.00
1011;DHT22;494;48.744;10.106;2022-08-05T09:19:59;31.80;13.80
1011;DHT22;494;48.744;10.106;2022-08-05T09:23:08;32.20;14.00
1011;DHT22;494;48.744;10.106;2022-08-05T09:25:48;32.50;13.70
1011;DHT22;494;48.744;10.106;2022-08-05T09:28:31;32.70;12.90
1011;DHT22;494;48.744;10.106;2022-08-05T09:31:03;32.80;12.90
1011;DHT22;494;48.744;10.106;2022-08-05T09:33:54;32.90;12.90
1011;DHT22;494;48.744;10.106;2022-08-05T09:36:37;33.10;13.50
1011;DHT22;494;48.744;10.106;2022-08-05T09:39:21;33.40;12.90
1011;DHT22;494;48.744;10.106;2022-08-05T09:42:13;33.30;12.70
1011;DHT22;494;48.744;10.106;2022-08-05T09:44:53;33.40;12.80
1011;DHT22;494;48.744;10.106;2022-08-05T09:47:43;33.50;12.70
1011;DHT22;494;48.744;10.106;2022-08-05T09:50:33;33.70;12.70
1011;DHT22;494;48.744;10.106;2022-08-05T09:53:10;34.00;12.30
1011;DHT22;494;48.744;10.106;2022-08-05T09:55:58;34.10;12.30
1011;DHT22;494;48.744;10.106;2022-08-05T09:58:40;34.60;12.00
1011;DHT22;494;48.744;10.106;2022-08-05T10:01:11;34.90;11.20
1011;DHT22;494;48.744;10.106;2022-08-05T10:03:59;35.00;11.20
1011;DHT22;494;48.744;10.106;2022-08-05T10:06:37;35.20;11.60
1011;DHT22;494;48.744;10.106;2022-08-05T10:09:25;35.60;10.80
1011;DHT22;494;48.744;10.106;2022-08-05T10:12:07;35.90;9.60
1011;DHT22;494;48.744;10.106;2022-08-05T10:15:14;35.90;9.40
1011;DHT22;494;48.744;10.106;2022-08-05T10:18:08;36.00;9.80
1011;DHT22;494;48.744;10.106;2022-08-05T10:20:42;35.80;9.40
1011;DHT22;494;48.744;10.106;2022-08-05T10:23:17;35.80;9.40
1011;DHT22;494;48.744;10.106;2022-08-05T10:26:10;35.80;9.60
1011;DHT22;494;48.744;10.106;2022-08-05T10:28:41;35.70;9.60
1011;DHT22;494;48.744;10.106;2022-08-05T10:31:16;35.60;9.20
1011;DHT22;494;48.744;10.106;2022-08-05T10:34:05;35.30;10.00
1011;DHT22;494;48.744;10.106;2022-08-05T10:36:36;35.20;10.50
1011;DHT22;494;48.744;10.106;2022-08-05T10:39:09;35.20;10.70
1011;DHT22;494;48.744;10.106;2022-08-05T10:42:04;35.20;10.60
1011;DHT22;494;48.744;10.106;2022-08-05T10:44:43;35.00;10.70
1011;DHT22;494;48.744;10.106;2022-08-05T10:47:15;34.70;10.50
1011;DHT22;494;48.744;10.106;2022-08-05T10:50:03;34.50;10.80
1011;DHT22;494;48.744;10.106;2022-08-05T10:52:57;34.40;10.70
1011;DHT22;494;48.744;10.106;2022-08-05T10:55:27;34.50;10.90
1011;DHT22;494;48.744;10.106;2022-08-05T10:58:18;34.60;11.10
1011;DHT22;494;48.744;10.106;2022-08-05T11:00:47;34.80;10.70
1011;DHT22;494;48.744;10.106;2022-08-05T11:03:30;34.70;10.60
1011;DHT22;494;48.744;10.106;2022-08-05T11:06:05;35.00;10.20
1011;DHT22;494;48.744;10.106;2022-08-05T11:12:40;35.60;10.40
1011;DHT22;494;48.744;10.106;2022-08-05T11:15:23;35.80;9.40
1011;DHT22;494;48.744;10.106;2022-08-05T11:18:26;35.80;8.70
1011;DHT22;494;48.744;10.106;2022-08-05T11:21:02;36.10;9.10
1011;DHT22;494;48.744;10.106;2022-08-05T11:23:42;36.50;9.30
1011;DHT22;494;48.744;10.106;2022-08-05T11:26:39;36.90;8.90
1011;DHT22;494;48.744;10.106;2022-08-05T11:29:33;37.30;7.60
1011;DHT22;494;48.744;10.106;2022-08-05T11:32:24;37.50;8.00
1011;DHT22;494;48.744;10.106;2022-08-05T11:34:54;37.40;7.40
1011;DHT22;494;48.744;10.106;2022-08-05T11:40:59;37.60;7.10
1011;DHT22;494;48.744;10.106;2022-08-05T11:43:59;37.90;7.50
1011;DHT22;494;48.744;10.106;2022-08-05T11:46:36;38.10;7.90
1011;DHT22;494;48.744;10.106;2022-08-05T11:49:26;38.40;7.30
1011;DHT22;494;48.744;10.106;2022-08-05T11:52:00;38.60;7.70
1011;DHT22;494;48.744;10.106;2022-08-05T11:54:38;38.80;6.40
1011;DHT22;494;48.744;10.106;2022-08-05T11:57:09;38.90;6.50
1011;DHT22;494;48.744;10.106;2022-08-05T11:59:53;39.10;6.90
1011;DHT22;494;48.744;10.106;2022-08-05T12:02:26;39.30;5.90
1011;DHT22;494;48.744;10.106;2022-08-05T12:05:01;39.20;5.60
1011;DHT22;494;48.744;10.106;2022-08-05T12:07:43;39.00;6.40
1011;DHT22;494;48.744;10.106;2022-08-05T12:10:38;39.20;6.50
1011;DHT22;494;48.744;10.106;2022-08-05T12:13:13;39.40;6.30
1011;DHT22;494;48.744;10.106;2022-08-05T12:16:03;39.70;5.90
1011;DHT22;494;48.744;10.106;2022-08-05T12:18:41;39.80;6.00
1011;DHT22;494;48.744;10.106;2022-08-05T12:21:22;40.00;5.90
1011;DHT22;494;48.744;10.106;2022-08-05T12:24:00;40.10;4.90
1011;DHT22;494;48.744;10.106;2022-08-05T12:26:37;40.00;5.50
1011;DHT22;494;48.744;10.106;2022-08-05T12:29:11;40.20;4.80
1011;DHT22;494;48.744;10.106;2022-08-05T12:31:53;40.40;5.00
1011;DHT22;494;48.744;10.106;2022-08-05T12:34:26;40.40;4.80
1011;DHT22;494;48.744;10.106;2022-08-05T12:36:58;40.40;5.00
1011;DHT22;494;48.744;10.106;2022-08-05T12:39:37;40.50;5.40
1011;DHT22;494;48.744;10.106;2022-08-05T12:42:09;40.70;4.90
1011;DHT22;494;48.744;10.106;2022-08-05T12:44:42;40.60;4.40
1011;DHT22;494;48.744;10.106;2022-08-05T12:47:23;40.60;4.70
1011;DHT22;494;48.744;10.106;2022-08-05T12:49:55;40.60;4.60
1011;DHT22;494;48.744;10.106;2022-08-05T12:52:35;40.70;5.20
1011;DHT22;494;48.744;10.106;2022-08-05T12:55:16;40.70;4.90
1011;DHT22;494;48.744;10.106;2022-08-05T12:57:51;40.70;4.70
1011;DHT22;494;48.744;10.106;2022-08-05T13:00:43;40.90;5.30
1011;DHT22;494;48.744;10.106;2022-08-05T13:03:37;40.80;4.60
1011;DHT22;494;48.744;10.106;2022-08-05T13:06:17;41.10;4.60
1011;DHT22;494;48.744;10.106;2022-08-05T13:08:52;40.80;4.40
1011;DHT22;494;48.744;10.106;2022-08-05T13:11:28;40.60;4.70
1011;DHT22;494;48.744;10.106;2022-08-05T13:14:21;40.90;4.70
1011;DHT22;494;48.744;10.106;2022-08-05T13:17:07;40.90;4.90
1011;DHT22;494;48.744;10.106;2022-08-05T13:19:37;41.10;5.20
1011;DHT22;494;48.744;10.106;2022-08-05T13:22:20;40.90;4.60
1011;DHT22;494;48.744;10.106;2022-08-05T13:24:56;41.10;5.70
1011;DHT22;494;48.744;10.106;2022-08-05T13:27:35;41.50;4.80
1011;DHT22;494;48.744;10.106;2022-08-05T13:30:09;41.70;5.20
1011;DHT22;494;48.744;10.106;2022-08-05T13:32:59;41.70;4.60
1011;DHT22;494;48.744;10.106;2022-08-05T13:35:28;42.00;4.40
1011;DHT22;494;48.744;10.106;2022-08-05T13:38:17;42.20;4.70
1011;DHT22;494;48.744;10.106;2022-08-05T13:41:01;42.20;4.10
1011;DHT22;494;48.744;10.106;2022-08-05T13:43:31;42.30;4.20
1011;DHT22;494;48.744;10.106;2022-08-05T13:46:21;42.30;3.60
1011;DHT22;494;48.744;10.106;2022-08-05T13:49:10;42.00;4.40
1011;DHT22;494;48.744;10.106;2022-08-05T13:51:40;42.10;3.70
1011;DHT22;494;48.744;10.106;2022-08-05T13:54:13;42.00;4.00
1011;DHT22;494;48.744;10.106;2022-08-05T13:56:51;41.70;3.50
1011;DHT22;494;48.744;10.106;2022-08-05T13:59:20;41.20;4.20
1011;DHT22;494;48.744;10.106;2022-08-05T14:01:55;40.90;5.20
1011;DHT22;494;48.744;10.106;2022-08-05T14:04:27;40.80;4.50
1011;DHT22;494;48.744;10.106;2022-08-05T14:07:18;40.90;4.60
1011;DHT22;494;48.744;10.106;2022-08-05T14:10:09;41.40;4.20
1011;DHT22;494;48.744;10.106;2022-08-05T14:12:39;41.60;4.20
1011;DHT22;494;48.744;10.106;2022-08-05T14:15:15;41.80;4.20
1011;DHT22;494;48.744;10.106;2022-08-05T14:18:05;42.00;4.40
1011;DHT22;494;48.744;10.106;2022-08-05T14:20:43;42.40;4.10
1011;DHT22;494;48.744;10.106;2022-08-05T14:23:13;42.60;4.20
1011;DHT22;494;48.744;10.106;2022-08-05T14:25:52;42.90;3.40
1011;DHT22;494;48.744;10.106;2022-08-05T14:28:25;42.90;2.80
1011;DHT22;494;48.744;10.106;2022-08-05T14:30:58;42.30;3.40
1011;DHT22;494;48.744;10.106;2022-08-05T14:33:29;42.40;3.50
1011;DHT22;494;48.744;10.106;2022-08-05T14:36:19;42.60;3.00
1011;DHT22;494;48.744;10.106;2022-08-05T14:38:47;42.50;2.80
1011;DHT22;494;48.744;10.106;2022-08-05T14:41:16;42.60;2.80
1011;DHT22;494;48.744;10.106;2022-08-05T14:43:47;42.90;2.60
1011;DHT22;494;48.744;10.106;2022-08-05T14:46:31;42.70;2.60
1011;DHT22;494;48.744;10.106;2022-08-05T14:49:03;42.10;3.10
1011;DHT22;494;48.744;10.106;2022-08-05T14:51:34;41.30;4.00
1011;DHT22;494;48.744;10.106;2022-08-05T14:54:04;40.90;3.80
1011;DHT22;494;48.744;10.106;2022-08-05T14:56:53;40.20;5.20
1011;DHT22;494;48.744;10.106;2022-08-05T14:59:22;39.80;5.70
1011;DHT22;494;48.744;10.106;2022-08-05T15:01:55;39.90;5.40
1011;DHT22;494;48.744;10.106;2022-08-05T15:04:27;39.50;5.80
1011;DHT22;494;48.744;10.106;2022-08-05T15:06:56;39.20;6.50
1011;DHT22;494;48.744;10.106;2022-08-05T15:09:24;38.90;6.20
1011;DHT22;494;48.744;10.106;2022-08-05T15:12:13;38.60;6.80
1011;DHT22;494;48.744;10.106;2022-08-05T15:14:53;38.60;6.70
1011;DHT22;494;48.744;10.106;2022-08-05T15:17:22;38.80;6.40
1011;DHT22;494;48.744;10.106;2022-08-05T15:20:12;38.90;6.20
1011;DHT22;494;48.744;10.106;2022-08-05T15:22:45;38.70;6.20
1011;DHT22;494;48.744;10.106;2022-08-05T15:25:20;38.30;7.50
1011;DHT22;494;48.744;10.106;2022-08-05T15:28:10;37.80;7.30
1011;DHT22;494;48.744;10.106;2022-08-05T15:30:41;37.30;8.10
1011;DHT22;494;48.744;10.106;2022-08-05T15:33:12;36.90;8.10
1011;DHT22;494;48.744;10.106;2022-08-05T15:36:04;36.60;8.50
1011;DHT22;494;48.744;10.106;2022-08-05T15:38:42;36.20;9.20
1011;DHT22;494;48.744;10.106;2022-08-05T15:41:12;35.80;9.70
1011;DHT22;494;48.744;10.106;2022-08-05T15:43:50;35.60;10.10
1011;DHT22;494;48.744;10.106;2022-08-05T15:46:21;35.50;10.20
1011;DHT22;494;48.744;10.106;2022-08-05T15:48:51;35.40;10.20
1011;DHT22;494;48.744;10.106;2022-08-05T15:51:36;35.20;11.20
1011;DHT22;494;48.744;10.106;2022-08-05T15:54:25;35.00;11.90
1011;DHT22;494;48.744;10.106;2022-08-05T15:57:03;34.80;12.10
1011;DHT22;494;48.744;10.106;2022-08-05T15:59:34;34.70;12.60
1011;DHT22;494;48.744;10.106;2022-08-05T16:02:04;34.60;12.10
1011;DHT22;494;48.744;10.106;2022-08-05T16:04:40;34.40;12.00
1011;DHT22;494;48.744;10.106;2022-08-05T16:07:11;34.30;12.10
1011;DHT22;494;48.744;10.106;2022-08-05T16:09:40;34.30;12.80
1011;DHT22;494;48.744;10.106;2022-08-05T16:12:09;34.20;14.00
1011;DHT22;494;48.744;10.106;2022-08-05T16:14:38;33.90;15.20
1011;DHT22;494;48.744;10.106;2022-08-05T16:17:06;33.80;15.70
1011;DHT22;494;48.744;10.106;2022-08-05T16:19:35;33.70;15.50
1011;DHT22;494;48.744;10.106;2022-08-05T16:22:25;33.70;14.90
1011;DHT22;494;48.744;10.106;2022-08-05T16:25:00;33.80;15.40
1011;DHT22;494;48.744;10.106;2022-08-05T16:27:36;33.80;15.60
1011;DHT22;494;48.744;10.106;2022-08-05T16:30:25;33.80;15.70
1011;DHT22;494;48.744;10.106;2022-08-05T16:32:55;33.80;16.10
1011;DHT22;494;48.744;10.106;2022-08-05T16:35:24;33.60;16.90
1011;DHT22;494;48.744;10.106;2022-08-05T16:38:09;33.40;13.80
1011;DHT22;494;48.744;10.106;2022-08-05T16:40:52;33.30;14.20
1011;DHT22;494;48.744;10.106;2022-08-05T16:43:29;33.30;13.90
1011;DHT22;494;48.744;10.106;2022-08-05T16:46:01;33.20;13.70
1011;DHT22;494;48.744;10.106;2022-08-05T16:48:50;33.20;13.20
1011;DHT22;494;48.744;10.106;2022-08-05T16:51:21;33.00;13.30
1011;DHT22;494;48.744;10.106;2022-08-05T16:53:58;32.90;13.20
1011;DHT22;494;48.744;10.106;2022-08-05T16:56:37;32.70;13.60
1011;DHT22;494;48.744;10.106;2022-08-05T16:59:07;32.60;13.40
1011;DHT22;494;48.744;10.106;2022-08-05T17:01:40;32.60;13.70
1011;DHT22;494;48.744;10.106;2022-08-05T17:04:20;32.50;13.60
1011;DHT22;494;48.744;10.106;2022-08-05T17:06:52;32.50;13.80
1011;DHT22;494;48.744;10.106;2022-08-05T17:09:22;32.50;13.80
1011;DHT22;494;48.744;10.106;2022-08-05T17:11:52;32.50;14.00
1011;DHT22;494;48.744;10.106;2022-08-05T17:14:27;32.60;14.60
1011;DHT22;494;48.744;10.106;2022-08-05T17:17:04;32.70;15.00
1011;DHT22;494;48.744;10.106;2022-08-05T17:19:41;32.50;15.60
1011;DHT22;494;48.744;10.106;2022-08-05T17:22:13;32.50;16.00
1011;DHT22;494;48.744;10.106;2022-08-05T17:24:53;32.40;16.10
1011;DHT22;494;48.744;10.106;2022-08-05T17:27:26;31.90;16.50
1011;DHT22;494;48.744;10.106;2022-08-05T17:30:01;31.50;17.40